Time;durP1;ratioP1;P1;durP2;ratioP2;P2;SDS_P1;SDS_P2;PMS_P1;PMS_P2;Temp;Humidity;BMP_temperature;BMP_pressure;BME280_temperature;BME280_humidity;BME280_pressure;Samples;Min_cycle;Max_cycle;Signal;HPM_P1;HPM_P2
2022/09/20 00:02:03;;;;;;;13.20;3.03;;;;;;;;;;5042351;28;20045;-57
2022/09/20 00:04:29;;;;;;;10.20;1.80;;;;;;;;;;5041771;28;20107;-57
2022/09/20 00:06:55;;;;;;;13.63;1.63;;;;;;;;;;5037534;28;20422;-57
2022/09/20 00:09:21;;;;;;;15.70;2.03;;;;;;;;;;5037630;28;20072;-58
2022/09/20 00:11:47;;;;;;;9.53;1.77;;;;;;;;;;5037848;28;20518;-57
2022/09/20 00:14:13;;;;;;;13.10;1.87;;;;;;;;;;5036411;28;20419;-57
2022/09/20 00:16:40;;;;;;;15.37;2.77;;;;;;;;;;5044176;28;20104;-58
2022/09/20 00:19:06;;;;;;;8.83;1.53;;;;;;;;;;5043150;28;20037;-58
2022/09/20 00:21:33;;;;;;;20.57;2.40;;;;;;;;;;5039839;28;20418;-58
2022/09/20 00:24:00;;;;;;;5.53;1.70;;;;;;;;;;5037909;28;20088;-58
2022/09/20 00:26:27;;;;;;;11.33;1.57;;;;;;;;;;5040199;28;20047;-58
2022/09/20 00:28:53;;;;;;;13.27;2.60;;;;;;;;;;5037470;28;20034;-57
2022/09/20 00:31:19;;;;;;;11.53;1.63;;;;;;;;;;5039488;28;20041;-58
2022/09/20 00:36:30;;;;;;;15.77;3.07;;;;;;;;;;5037044;28;20049;-58
2022/09/20 00:38:58;;;;;;;10.70;1.80;;;;;;;;;;5041464;28;20049;-57
2022/09/20 00:41:24;;;;;;;13.90;1.97;;;;;;;;;;5039555;28;20387;-57
2022/09/20 00:43:51;;;;;;;10.93;1.67;;;;;;;;;;5036068;28;20096;-57
2022/09/20 00:46:17;;;;;;;9.77;1.70;;;;;;;;;;5036991;28;20033;-57
2022/09/20 00:48:43;;;;;;;14.40;1.93;;;;;;;;;;5034358;28;20046;-57
2022/09/20 00:51:12;;;;;;;13.23;2.87;;;;;;;;;;5039554;28;20041;-57
2022/09/20 00:53:43;;;;;;;5.37;1.60;;;;;;;;;;5034888;28;20041;-58
2022/09/20 00:56:11;;;;;;;14.57;1.80;;;;;;;;;;5034952;28;20037;-57
2022/09/20 00:58:39;;;;;;;10.93;2.30;;;;;;;;;;5036733;28;20399;-58
2022/09/20 01:01:06;;;;;;;12.90;1.80;;;;;;;;;;5039521;28;20102;-57
2022/09/20 01:03:33;;;;;;;12.67;2.17;;;;;;;;;;5038526;28;20041;-57
2022/09/20 01:06:03;;;;;;;13.80;2.10;;;;;;;;;;5036695;28;20045;-58
2022/09/20 01:08:30;;;;;;;12.00;1.80;;;;;;;;;;5042437;28;20068;-58
2022/09/20 01:10:56;;;;;;;12.50;1.73;;;;;;;;;;5035174;28;20051;-57
2022/09/20 01:13:22;;;;;;;7.87;1.33;;;;;;;;;;5040715;28;20038;-58
2022/09/20 01:15:49;;;;;;;9.37;1.83;;;;;;;;;;5029820;28;20517;-58
2022/09/20 01:18:16;;;;;;;9.10;1.63;;;;;;;;;;5044201;28;20048;-58
2022/09/20 01:20:44;;;;;;;10.07;1.70;;;;;;;;;;5049458;28;20103;-58
2022/09/20 01:23:21;;;;;;;8.77;1.60;;;;;;;;;;5049253;28;20048;-57
2022/09/20 01:26:00;;;;;;;10.50;2.30;;;;;;;;;;5049552;28;20187;-58
2022/09/20 01:28:28;;;;;;;12.90;2.03;;;;;;;;;;5049401;28;20049;-58
2022/09/20 01:31:08;;;;;;;11.53;1.70;;;;;;;;;;5049436;28;20037;-58
2022/09/20 01:33:43;;;;;;;15.53;2.67;;;;;;;;;;5049187;28;20041;-58
2022/09/20 01:36:11;;;;;;;10.27;1.87;;;;;;;;;;5049094;28;20045;-58
2022/09/20 01:38:56;;;;;;;7.30;2.27;;;;;;;;;;5048785;28;20048;-58
2022/09/20 01:41:33;;;;;;;8.90;2.43;;;;;;;;;;5049092;28;20057;-58
2022/09/20 01:44:05;;;;;;;13.77;3.37;;;;;;;;;;5048674;28;20045;-58
2022/09/20 01:46:35;;;;;;;10.83;2.37;;;;;;;;;;5048946;28;20052;-57
2022/09/20 01:49:04;;;;;;;7.60;1.60;;;;;;;;;;5048926;28;20049;-58
2022/09/20 01:51:40;;;;;;;13.57;2.57;;;;;;;;;;5048749;28;20052;-58
2022/09/20 01:54:08;;;;;;;7.67;1.50;;;;;;;;;;5039322;28;20403;-57
2022/09/20 01:56:41;;;;;;;9.93;2.03;;;;;;;;;;5029068;28;20041;-58
2022/09/20 01:59:39;;;;;;;13.83;2.60;;;;;;;;;;5028468;28;20060;-58
2022/09/20 02:02:14;;;;;;;10.57;1.90;;;;;;;;;;4995202;28;20049;-58
2022/09/20 02:05:03;;;;;;;9.40;1.40;;;;;;;;;;5028967;28;20491;-58
2022/09/20 02:07:55;;;;;;;10.93;1.97;;;;;;;;;;5028692;28;20511;-58
2022/09/20 02:10:50;;;;;;;11.83;1.90;;;;;;;;;;5028736;28;20085;-58
2022/09/20 02:13:22;;;;;;;11.70;1.93;;;;;;;;;;5015370;28;20593;-58
2022/09/20 02:16:07;;;;;;;14.17;1.60;;;;;;;;;;5037647;28;20052;-58
2022/09/20 02:18:52;;;;;;;9.53;1.47;;;;;;;;;;5048431;28;20146;-58
2022/09/20 02:21:18;;;;;;;9.03;1.50;;;;;;;;;;5048397;28;20499;-58
2022/09/20 02:23:46;;;;;;;11.10;2.80;;;;;;;;;;5048724;28;20102;-58
2022/09/20 02:26:33;;;;;;;14.53;2.57;;;;;;;;;;5048399;28;20056;-58
2022/09/20 02:29:22;;;;;;;6.47;1.60;;;;;;;;;;5047985;28;20417;-58
2022/09/20 02:31:54;;;;;;;9.57;1.97;;;;;;;;;;5040219;28;20045;-58
2022/09/20 02:34:30;;;;;;;10.47;1.70;;;;;;;;;;5054876;28;20059;-58
2022/09/20 02:37:14;;;;;;;10.03;1.97;;;;;;;;;;5054734;28;20045;-58
2022/09/20 02:40:06;;;;;;;13.03;1.77;;;;;;;;;;5055075;28;20459;-58
2022/09/20 02:42:41;;;;;;;12.53;2.10;;;;;;;;;;5030782;28;20045;-58
2022/09/20 02:45:20;;;;;;;8.00;1.80;;;;;;;;;;5054431;28;20624;-58
2022/09/20 02:47:47;;;;;;;16.17;2.50;;;;;;;;;;5054990;28;20052;-58
2022/09/20 02:50:25;;;;;;;10.03;1.80;;;;;;;;;;5054550;28;20045;-58
2022/09/20 02:53:08;;;;;;;7.60;1.67;;;;;;;;;;5055190;28;20053;-58
2022/09/20 02:55:52;;;;;;;14.48;1.98;;;;;;;;;;5034919;28;20522;-58
2022/09/20 02:58:29;;;;;;;10.33;2.63;;;;;;;;;;5034714;28;20053;-58
2022/09/20 03:01:09;;;;;;;13.43;2.93;;;;;;;;;;5034751;28;20780;-58
2022/09/20 03:03:38;;;;;;;8.73;1.73;;;;;;;;;;5034946;28;20048;-58
2022/09/20 03:06:19;;;;;;;15.47;2.77;;;;;;;;;;5036358;28;20049;-58
2022/09/20 03:09:06;;;;;;;10.47;1.73;;;;;;;;;;5054154;28;20089;-58
2022/09/20 03:11:43;;;;;;;8.53;1.53;;;;;;;;;;5054567;28;20049;-58
2022/09/20 03:14:12;;;;;;;9.73;1.63;;;;;;;;;;5054818;28;20033;-58
2022/09/20 03:16:56;;;;;;;7.90;1.70;;;;;;;;;;5054961;28;20414;-58
2022/09/20 03:19:34;;;;;;;10.63;1.83;;;;;;;;;;5054538;28;20051;-58
2022/09/20 03:22:05;;;;;;;10.57;2.00;;;;;;;;;;5054642;28;20453;-58
2022/09/20 03:24:40;;;;;;;7.90;1.70;;;;;;;;;;5053289;28;20415;-58
2022/09/20 03:27:13;;;;;;;8.87;2.13;;;;;;;;;;5034858;28;20080;-58
2022/09/20 03:29:39;;;;;;;9.47;1.33;;;;;;;;;;5034618;28;20049;-58
2022/09/20 03:32:24;;;;;;;6.17;1.53;;;;;;;;;;5034184;28;20439;-58
2022/09/20 03:34:50;;;;;;;9.73;1.90;;;;;;;;;;5035104;28;20114;-58
2022/09/20 03:37:21;;;;;;;5.63;1.50;;;;;;;;;;5035074;28;20488;-58
2022/09/20 03:40:14;;;;;;;10.27;1.83;;;;;;;;;;5035002;28;20057;-58
2022/09/20 03:42:47;;;;;;;13.77;2.03;;;;;;;;;;5049080;28;20049;-58
2022/09/20 03:45:15;;;;;;;8.03;1.77;;;;;;;;;;5050908;28;20447;-58
2022/09/20 03:48:08;;;;;;;6.63;1.53;;;;;;;;;;5051491;28;20089;-58
2022/09/20 03:50:40;;;;;;;10.80;1.73;;;;;;;;;;5048383;28;20053;-58
2022/09/20 03:53:12;;;;;;;8.20;1.87;;;;;;;;;;5050140;28;20077;-58
2022/09/20 03:55:46;;;;;;;6.40;1.43;;;;;;;;;;5038257;28;20410;-58
2022/09/20 03:58:12;;;;;;;8.60;1.93;;;;;;;;;;5050640;28;20176;-58
2022/09/20 04:00:38;;;;;;;10.03;1.77;;;;;;;;;;5050582;28;20135;-58
2022/09/20 04:03:17;;;;;;;6.47;1.40;;;;;;;;;;5050891;28;20090;-58
2022/09/20 04:06:01;;;;;;;10.63;1.60;;;;;;;;;;5051116;28;20067;-58
2022/09/20 04:08:33;;;;;;;8.10;2.07;;;;;;;;;;5050751;28;20114;-58
2022/09/20 04:11:04;;;;;;;6.37;2.00;;;;;;;;;;5050666;28;20045;-58
2022/09/20 04:13:46;;;;;;;12.00;1.53;;;;;;;;;;5050663;28;20037;-58
2022/09/20 04:16:37;;;;;;;7.50;1.27;;;;;;;;;;5049823;28;20553;-58
2022/09/20 04:19:03;;;;;;;8.43;1.97;;;;;;;;;;5050844;28;20041;-58
2022/09/20 04:21:52;;;;;;;7.80;1.57;;;;;;;;;;5050829;28;20135;-58
2022/09/20 04:24:37;;;;;;;8.20;1.40;;;;;;;;;;5050472;28;20056;-58
2022/09/20 04:27:37;;;;;;;6.40;1.43;;;;;;;;;;5051162;28;20073;-58
2022/09/20 04:30:23;;;;;;;4.27;1.20;;;;;;;;;;5017460;28;20087;-58
2022/09/20 04:33:11;;;;;;;8.27;1.63;;;;;;;;;;5050539;28;20049;-58
2022/09/20 04:38:34;;;;;;;7.70;1.43;;;;;;;;;;5050643;28;20090;-58
2022/09/20 04:41:15;;;;;;;6.53;1.50;;;;;;;;;;5050424;28;20049;-58
2022/09/20 04:44:14;;;;;;;7.60;1.07;;;;;;;;;;5049678;28;20048;-58
2022/09/20 04:46:46;;;;;;;5.63;1.10;;;;;;;;;;5016690;28;20504;-58
2022/09/20 04:49:27;;;;;;;7.57;1.10;;;;;;;;;;5049856;28;20052;-59
2022/09/20 04:52:13;;;;;;;2.77;0.80;;;;;;;;;;5050279;28;20061;-58
2022/09/20 04:54:40;;;;;;;5.30;1.00;;;;;;;;;;5036237;28;20053;-58
2022/09/20 04:57:35;;;;;;;5.10;1.33;;;;;;;;;;5029664;28;20053;-58
2022/09/20 05:00:07;;;;;;;9.83;1.30;;;;;;;;;;5017003;28;20107;-58
2022/09/20 05:02:40;;;;;;;4.33;1.10;;;;;;;;;;5042784;28;20083;-58
2022/09/20 05:05:34;;;;;;;7.38;1.33;;;;;;;;;;5049770;28;20060;-58
2022/09/20 05:08:19;;;;;;;5.43;1.30;;;;;;;;;;5049089;28;20057;-58
2022/09/20 05:11:12;;;;;;;2.50;1.00;;;;;;;;;;5048845;28;20056;-58
2022/09/20 05:13:46;;;;;;;4.60;1.47;;;;;;;;;;5049702;28;20110;-58
2022/09/20 05:16:26;;;;;;;7.53;1.40;;;;;;;;;;5049624;28;20044;-58
2022/09/20 05:19:01;;;;;;;7.37;1.27;;;;;;;;;;5049494;28;20168;-58
2022/09/20 05:21:33;;;;;;;7.93;1.67;;;;;;;;;;5049750;28;20053;-58
2022/09/20 05:24:03;;;;;;;6.50;1.33;;;;;;;;;;5049449;28;20573;-58
2022/09/20 05:26:29;;;;;;;6.17;1.70;;;;;;;;;;5048862;28;20087;-58
2022/09/20 05:29:00;;;;;;;9.10;1.80;;;;;;;;;;5045398;28;20057;-58
2022/09/20 05:31:27;;;;;;;5.37;1.40;;;;;;;;;;5048397;28;20124;-58
2022/09/20 05:33:55;;;;;;;7.37;1.50;;;;;;;;;;5047594;28;20057;-58
2022/09/20 05:36:28;;;;;;;5.20;1.30;;;;;;;;;;5048890;28;20103;-58
2022/09/20 05:39:00;;;;;;;5.30;1.90;;;;;;;;;;5030255;28;20053;-58
2022/09/20 05:41:32;;;;;;;6.50;1.30;;;;;;;;;;5029232;28;20573;-58
2022/09/20 05:44:23;;;;;;;6.90;1.70;;;;;;;;;;5028862;28;20056;-58
2022/09/20 05:47:09;;;;;;;14.97;2.10;;;;;;;;;;5028899;28;20045;-58
2022/09/20 05:49:45;;;;;;;5.87;1.50;;;;;;;;;;5026631;28;20142;-58
2022/09/20 05:52:14;;;;;;;8.57;1.57;;;;;;;;;;5048859;28;20132;-58
2022/09/20 05:54:43;;;;;;;8.73;1.60;;;;;;;;;;5039035;28;20051;-58
2022/09/20 05:57:14;;;;;;;5.07;1.60;;;;;;;;;;5048235;28;20048;-58
2022/09/20 06:00:01;;;;;;;7.30;1.67;;;;;;;;;;5048439;28;20131;-58
2022/09/20 06:02:32;;;;;;;5.47;1.57;;;;;;;;;;5048357;28;20165;-58
2022/09/20 06:05:02;;;;;;;10.50;1.97;;;;;;;;;;5048554;28;20041;-59
2022/09/20 06:07:47;;;;;;;8.57;1.50;;;;;;;;;;5047919;28;20053;-58
2022/09/20 06:10:35;;;;;;;6.60;1.70;;;;;;;;;;5048024;28;20318;-58
2022/09/20 06:13:21;;;;;;;9.33;1.80;;;;;;;;;;5047735;28;20080;-59
2022/09/20 06:15:53;;;;;;;8.53;1.47;;;;;;;;;;5047574;28;20049;-58
2022/09/20 06:18:32;;;;;;;12.70;1.67;;;;;;;;;;5046773;28;20055;-59
2022/09/20 06:21:13;;;;;;;5.80;1.70;;;;;;;;;;5047005;28;20552;-58
2022/09/20 06:23:39;;;;;;;5.93;1.70;;;;;;;;;;5048245;28;20406;-58
2022/09/20 06:26:13;;;;;;;9.80;1.90;;;;;;;;;;5035450;28;20045;-59
2022/09/20 06:28:41;;;;;;;12.07;3.23;;;;;;;;;;5036129;28;20068;-58
2022/09/20 06:31:08;;;;;;;12.13;2.00;;;;;;;;;;5039210;28;20044;-58
2022/09/20 06:33:40;;;;;;;5.60;1.73;;;;;;;;;;5038254;28;20457;-58
2022/09/20 06:41:53;;;;;;;8.00;2.13;;;;;;;;;;5038075;28;20355;-58
2022/09/20 06:44:19;;;;;;;9.17;1.70;;;;;;;;;;5039407;28;20038;-58
2022/09/20 06:46:45;;;;;;;6.70;1.90;;;;;;;;;;5040613;28;20060;-58
2022/09/20 06:49:11;;;;;;;5.57;1.60;;;;;;;;;;5037146;28;20389;-59
2022/09/20 06:51:38;;;;;;;7.50;1.87;;;;;;;;;;5034083;28;20052;-59
2022/09/20 06:54:05;;;;;;;8.37;1.60;;;;;;;;;;5035895;28;20037;-58
2022/09/20 06:56:35;;;;;;;9.50;1.60;;;;;;;;;;5039577;28;20604;-59
2022/09/20 06:59:01;;;;;;;5.43;1.30;;;;;;;;;;5039998;28;20132;-58
2022/09/20 07:01:27;;;;;;;6.03;1.23;;;;;;;;;;5047247;28;20485;-58
2022/09/20 07:03:53;;;;;;;7.17;1.10;;;;;;;;;;5032034;28;20069;-58
2022/09/20 07:06:19;;;;;;;9.40;1.80;;;;;;;;;;5037455;28;20449;-58
2022/09/20 07:08:45;;;;;;;6.37;1.57;;;;;;;;;;5045891;28;20064;-58
2022/09/20 07:11:16;;;;;;;4.07;1.33;;;;;;;;;;5047731;28;20053;-59
2022/09/20 07:13:45;;;;;;;7.10;2.20;;;;;;;;;;5047140;28;20111;-58
2022/09/20 07:16:13;;;;;;;7.90;1.77;;;;;;;;;;5033084;28;20132;-58
2022/09/20 07:18:40;;;;;;;4.47;1.43;;;;;;;;;;5028784;28;20072;-58
2022/09/20 07:21:06;;;;;;;6.80;1.10;;;;;;;;;;5030678;28;20050;-58
2022/09/20 07:23:32;;;;;;;8.10;1.53;;;;;;;;;;5037559;28;20033;-59
2022/09/20 07:25:59;;;;;;;7.07;1.20;;;;;;;;;;5049680;28;20044;-58
2022/09/20 07:28:26;;;;;;;5.57;1.23;;;;;;;;;;5049561;28;20060;-58
2022/09/20 07:30:52;;;;;;;6.33;1.13;;;;;;;;;;5046390;28;20056;-58
2022/09/20 07:33:22;;;;;;;6.67;1.80;;;;;;;;;;5046489;28;20049;-59
2022/09/20 07:35:48;;;;;;;4.13;1.17;;;;;;;;;;5035438;28;20530;-58
2022/09/20 07:38:15;;;;;;;6.83;1.03;;;;;;;;;;5037968;28;20052;-59
2022/09/20 07:40:42;;;;;;;3.37;0.90;;;;;;;;;;5030741;28;20083;-58
2022/09/20 07:43:08;;;;;;;4.10;0.90;;;;;;;;;;5035842;28;20123;-58
2022/09/20 07:45:37;;;;;;;7.57;1.10;;;;;;;;;;5047545;28;20049;-59
2022/09/20 07:48:05;;;;;;;8.03;1.33;;;;;;;;;;5050602;28;20080;-59
2022/09/20 07:50:32;;;;;;;4.80;0.90;;;;;;;;;;5046810;28;20495;-58
2022/09/20 07:52:58;;;;;;;9.00;1.30;;;;;;;;;;5040357;28;20045;-59
2022/09/20 07:55:24;;;;;;;3.83;0.73;;;;;;;;;;5049909;28;20048;-59
2022/09/20 07:57:50;;;;;;;9.87;1.17;;;;;;;;;;5050818;28;20120;-59
2022/09/20 08:00:17;;;;;;;7.80;1.60;;;;;;;;;;5049211;28;20048;-58
2022/09/20 08:02:44;;;;;;;11.40;1.50;;;;;;;;;;5035706;28;20041;-59
2022/09/20 08:05:10;;;;;;;6.40;0.97;;;;;;;;;;5038074;28;20053;-58
2022/09/20 08:07:38;;;;;;;4.17;1.20;;;;;;;;;;5047856;28;20049;-59
2022/09/20 08:10:04;;;;;;;4.70;1.30;;;;;;;;;;5049521;28;20053;-58
2022/09/20 08:12:31;;;;;;;5.37;1.20;;;;;;;;;;5049062;28;20047;-58
2022/09/20 08:14:57;;;;;;;4.30;1.00;;;;;;;;;;5049831;28;20053;-58
2022/09/20 08:17:23;;;;;;;3.67;0.90;;;;;;;;;;5040590;28;20051;-59
2022/09/20 08:19:51;;;;;;;5.33;1.43;;;;;;;;;;5029659;28;20537;-58
2022/09/20 08:22:18;;;;;;;5.50;1.90;;;;;;;;;;5033518;28;20115;-58
2022/09/20 08:24:45;;;;;;;4.20;0.80;;;;;;;;;;5048955;28;20503;-58
2022/09/20 08:27:12;;;;;;;3.77;1.00;;;;;;;;;;5050047;28;20048;-59
2022/09/20 08:29:39;;;;;;;8.97;1.93;;;;;;;;;;5033231;28;20061;-59
2022/09/20 08:32:05;;;;;;;7.60;1.50;;;;;;;;;;5028566;28;20127;-58
2022/09/20 08:34:31;;;;;;;9.13;2.00;;;;;;;;;;5035491;28;20063;-58
2022/09/20 08:36:58;;;;;;;7.03;1.03;;;;;;;;;;5030040;28;20529;-59
2022/09/20 08:39:25;;;;;;;5.10;0.83;;;;;;;;;;5049519;28;20052;-58
2022/09/20 08:41:56;;;;;;;8.73;1.23;;;;;;;;;;5034798;28;20459;-59
2022/09/20 08:44:25;;;;;;;5.87;1.63;;;;;;;;;;5030640;28;20515;-59
2022/09/20 08:47:02;;;;;;;5.03;1.07;;;;;;;;;;5035704;28;20047;-59
2022/09/20 08:49:29;;;;;;;6.37;0.77;;;;;;;;;;5044797;28;20522;-58
2022/09/20 08:51:56;;;;;;;8.80;1.30;;;;;;;;;;5041913;28;20049;-59
2022/09/20 08:54:23;;;;;;;4.23;0.97;;;;;;;;;;5031515;28;20045;-59
2022/09/20 08:56:49;;;;;;;4.57;1.27;;;;;;;;;;5030080;28;20052;-59
2022/09/20 08:59:18;;;;;;;5.93;1.07;;;;;;;;;;5029553;28;20506;-59
2022/09/20 09:01:45;;;;;;;8.57;0.93;;;;;;;;;;5038855;28;20048;-59
2022/09/20 09:04:15;;;;;;;7.50;1.40;;;;;;;;;;5036516;28;20465;-59
2022/09/20 09:06:42;;;;;;;4.57;1.10;;;;;;;;;;5036586;28;20041;-59
2022/09/20 09:09:12;;;;;;;5.20;1.17;;;;;;;;;;5032409;28;20499;-59
2022/09/20 09:11:40;;;;;;;4.60;0.73;;;;;;;;;;5036269;28;20055;-59
2022/09/20 09:14:46;;;;;;;2.60;0.83;;;;;;;;;;5047049;28;20055;-58
2022/09/20 09:16:54;;;;;;;6.83;0.90;;;;;;;;;;5029828;28;20617;-59
2022/09/20 09:19:27;;;;;;;7.03;1.00;;;;;;;;;;5048997;28;20069;-59
2022/09/20 09:21:53;;;;;;;;;;;;;;;;;;5049549;28;20445;-59
2022/09/20 09:24:19;;;;;;;4.33;0.97;;;;;;;;;;5048450;28;19920;-58
2022/09/20 09:26:45;;;;;;;7.57;1.23;;;;;;;;;;5048514;28;20044;-58
2022/09/20 09:29:24;;;;;;;8.90;1.57;;;;;;;;;;5049063;28;20098;-59
2022/09/20 09:31:51;;;;;;;3.53;0.80;;;;;;;;;;5031175;28;20101;-59
2022/09/20 09:34:23;;;;;;;4.43;0.83;;;;;;;;;;5042401;28;20508;-59
2022/09/20 09:36:49;;;;;;;4.85;0.82;;;;;;;;;;5048019;28;20140;-59
2022/09/20 09:39:22;;;;;;;6.30;0.97;;;;;;;;;;5047996;28;20431;-59
2022/09/20 09:41:49;;;;;;;5.90;1.02;;;;;;;;;;5048473;28;20056;-57
2022/09/20 09:44:15;;;;;;;4.93;0.80;;;;;;;;;;5046763;28;20070;-58
2022/09/20 09:46:42;;;;;;;4.50;0.67;;;;;;;;;;5048708;28;20415;-58
2022/09/20 09:49:08;;;;;;;5.60;0.90;;;;;;;;;;5048346;28;20056;-58
2022/09/20 09:51:35;;;;;;;5.97;1.00;;;;;;;;;;5048031;28;20574;-58
2022/09/20 09:54:01;;;;;;;8.57;1.00;;;;;;;;;;5033853;28;20376;-57
2022/09/20 09:56:47;;;;;;;4.77;2.03;;;;;;;;;;5028897;28;20049;-57
2022/09/20 09:59:32;;;;;;;6.57;0.90;;;;;;;;;;5034696;28;20091;-58
2022/09/20 10:02:17;;;;;;;3.30;0.90;;;;;;;;;;5048911;28;20037;-58
2022/09/20 10:04:48;;;;;;;4.27;0.60;;;;;;;;;;5047978;28;20147;-58
2022/09/20 10:07:20;;;;;;;7.53;0.80;;;;;;;;;;5045449;28;20049;-58
2022/09/20 10:09:49;;;;;;;3.60;0.73;;;;;;;;;;5048967;28;20049;-58
2022/09/20 10:12:25;;;;;;;7.10;0.90;;;;;;;;;;5047308;28;20053;-59
2022/09/20 10:14:57;;;;;;;4.73;0.80;;;;;;;;;;5036996;28;20056;-58
2022/09/20 10:17:38;;;;;;;4.03;1.10;;;;;;;;;;5036454;28;20041;-58
2022/09/20 10:20:06;;;;;;;5.17;0.93;;;;;;;;;;5034727;28;20045;-58
2022/09/20 10:22:39;;;;;;;3.47;0.73;;;;;;;;;;5040938;28;20088;-58
2022/09/20 10:25:22;;;;;;;5.07;0.65;;;;;;;;;;5047382;28;20136;-59
2022/09/20 10:27:51;;;;;;;7.75;1.23;;;;;;;;;;5027494;28;20081;-59
2022/09/20 10:30:17;;;;;;;4.40;1.00;;;;;;;;;;5030398;28;20128;-59
2022/09/20 10:32:51;;;;;;;5.70;1.23;;;;;;;;;;5028365;28;20050;-59
2022/09/20 10:35:55;;;;;;;5.53;0.87;;;;;;;;;;5046817;28;20086;-59
2022/09/20 10:38:30;;;;;;;2.90;0.70;;;;;;;;;;4965176;28;20637;-59
2022/09/20 10:43:56;;;;;;;7.60;1.03;;;;;;;;;;5010925;28;20579;-59
2022/09/20 10:46:22;;;;;;;6.13;0.97;;;;;;;;;;5027247;28;20041;-59
2022/09/20 10:48:51;;;;;;;5.20;1.03;;;;;;;;;;5027950;28;20057;-59
2022/09/20 10:51:33;;;;;;;8.47;0.93;;;;;;;;;;5042125;28;20099;-59
2022/09/20 10:54:02;;;;;;;8.57;2.07;;;;;;;;;;5045350;28;20053;-59
2022/09/20 10:56:31;;;;;;;6.63;1.00;;;;;;;;;;5031750;28;20079;-59
2022/09/20 10:58:58;;;;;;;4.30;1.00;;;;;;;;;;5030769;28;20057;-59
2022/09/20 11:01:43;;;;;;;3.97;1.13;;;;;;;;;;5031646;28;20053;-59
2022/09/20 11:04:20;;;;;;;8.60;1.20;;;;;;;;;;5039838;28;20052;-59
2022/09/20 11:06:50;;;;;;;5.93;1.00;;;;;;;;;;5049857;28;20248;-59
2022/09/20 11:09:19;;;;;;;5.73;0.80;;;;;;;;;;5051008;28;20593;-59
2022/09/20 11:11:47;;;;;;;6.47;1.00;;;;;;;;;;5051166;28;20055;-59
2022/09/20 11:14:15;;;;;;;6.83;0.90;;;;;;;;;;5051042;28;20127;-59
2022/09/20 11:16:44;;;;;;;4.67;1.00;;;;;;;;;;5051328;28;20114;-59
2022/09/20 11:19:30;;;;;;;4.33;1.20;;;;;;;;;;5050593;28;20510;-59
2022/09/20 11:22:08;;;;;;;5.00;1.13;;;;;;;;;;5050989;28;20067;-59
2022/09/20 11:24:37;;;;;;;5.63;1.00;;;;;;;;;;5051004;28;20136;-59
2022/09/20 11:27:16;;;;;;;4.73;1.10;;;;;;;;;;5049774;28;20057;-59
2022/09/20 11:30:02;;;;;;;6.90;1.00;;;;;;;;;;5050042;28;20135;-59
2022/09/20 11:32:41;;;;;;;2.10;0.60;;;;;;;;;;5051171;28;20098;-59
2022/09/20 11:35:25;;;;;;;5.53;1.33;;;;;;;;;;5050620;28;20122;-59
2022/09/20 11:37:58;;;;;;;6.97;1.23;;;;;;;;;;5050964;28;20052;-59
2022/09/20 11:40:27;;;;;;;2.70;0.73;;;;;;;;;;5051034;28;20041;-59
2022/09/20 11:42:55;;;;;;;8.90;1.40;;;;;;;;;;5049989;28;20596;-59
2022/09/20 11:45:21;;;;;;;6.00;1.03;;;;;;;;;;5050514;28;20457;-59
2022/09/20 11:47:49;;;;;;;4.53;0.70;;;;;;;;;;5050495;28;20128;-59
2022/09/20 11:50:45;;;;;;;3.93;0.83;;;;;;;;;;5050742;28;20053;-59
2022/09/20 11:53:27;;;;;;;2.93;0.73;;;;;;;;;;5050595;28;20395;-59
2022/09/20 11:55:53;;;;;;;5.20;0.73;;;;;;;;;;5050335;28;20041;-59
2022/09/20 11:58:21;;;;;;;5.37;1.17;;;;;;;;;;5049712;28;20187;-59
2022/09/20 12:00:48;;;;;;;2.83;0.70;;;;;;;;;;5050607;28;20057;-59
2022/09/20 12:03:35;;;;;;;5.17;1.00;;;;;;;;;;5050206;28;20049;-59
2022/09/20 12:06:06;;;;;;;5.60;1.00;;;;;;;;;;5048514;28;20048;-59
2022/09/20 12:08:34;;;;;;;5.63;0.97;;;;;;;;;;5050422;28;20049;-59
2022/09/20 12:11:05;;;;;;;7.03;1.43;;;;;;;;;;5049828;28;20057;-59
2022/09/20 12:13:34;;;;;;;3.87;0.77;;;;;;;;;;5050434;28;20041;-59
2022/09/20 12:16:00;;;;;;;3.70;0.80;;;;;;;;;;5049308;28;20387;-59
2022/09/20 12:18:28;;;;;;;2.73;0.63;;;;;;;;;;5050078;28;20049;-59
2022/09/20 12:21:20;;;;;;;3.57;0.80;;;;;;;;;;5050084;28;20052;-59
2022/09/20 12:23:59;;;;;;;4.00;0.77;;;;;;;;;;5047116;28;20090;-59
2022/09/20 12:26:25;;;;;;;6.37;0.90;;;;;;;;;;5049797;28;20053;-59
2022/09/20 12:28:53;;;;;;;3.53;1.00;;;;;;;;;;5049678;28;20045;-59
2022/09/20 12:31:19;;;;;;;5.20;0.90;;;;;;;;;;5049758;28;20056;-59
2022/09/20 12:33:56;;;;;;;4.80;1.57;;;;;;;;;;5047207;28;20132;-59
2022/09/20 12:36:22;;;;;;;3.17;0.73;;;;;;;;;;5048969;28;20045;-59
2022/09/20 12:38:56;;;;;;;4.43;0.73;;;;;;;;;;5049400;28;20437;-59
2022/09/20 12:41:22;;;;;;;;;;;;;;;;;;5050292;28;20041;-59
2022/09/20 12:43:59;;;;;;;7.17;1.40;;;;;;;;;;5049110;28;19921;-59
2022/09/20 12:46:42;;;;;;;6.10;1.00;;;;;;;;;;5049544;28;20052;-59
2022/09/20 12:55:11;;;;;;;4.23;0.83;;;;;;;;;;5048288;28;20048;-59
2022/09/20 12:57:38;;;;;;;5.43;1.20;;;;;;;;;;5048234;28;20072;-59
2022/09/20 13:00:07;;;;;;;4.07;0.70;;;;;;;;;;5049632;28;20041;-59
2022/09/20 13:02:48;;;;;;;3.80;0.97;;;;;;;;;;5049284;28;20045;-60
2022/09/20 13:05:35;;;;;;;5.27;1.10;;;;;;;;;;5049527;28;20499;-59
2022/09/20 13:08:21;;;;;;;4.77;1.07;;;;;;;;;;5049286;28;20057;-60
2022/09/20 13:10:51;;;;;;;4.40;0.70;;;;;;;;;;5049388;28;20538;-60
2022/09/20 13:13:40;;;;;;;5.13;0.90;;;;;;;;;;5049203;28;20128;-60
2022/09/20 13:16:06;;;;;;;5.63;1.37;;;;;;;;;;5049462;28;20124;-60
2022/09/20 13:18:34;;;;;;;6.90;1.33;;;;;;;;;;5049238;28;20049;-60
2022/09/20 13:21:05;;;;;;;4.20;0.87;;;;;;;;;;5049205;28;20495;-59
2022/09/20 13:23:33;;;;;;;4.20;0.80;;;;;;;;;;5048444;28;20037;-59
2022/09/20 13:26:01;;;;;;;5.67;1.23;;;;;;;;;;5049150;28;20570;-59
2022/09/20 13:28:27;;;;;;;4.53;1.30;;;;;;;;;;5049180;28;20994;-59
2022/09/20 13:31:12;;;;;;;7.07;1.03;;;;;;;;;;5049142;28;20048;-59
2022/09/20 13:33:38;;;;;;;3.40;0.97;;;;;;;;;;5048063;28;20135;-59
2022/09/20 13:36:04;;;;;;;4.60;1.20;;;;;;;;;;5029614;28;20392;-59
2022/09/20 13:38:31;;;;;;;4.90;1.17;;;;;;;;;;5029162;28;20171;-59
2022/09/20 13:41:06;;;;;;;4.73;1.10;;;;;;;;;;5029148;28;20053;-59
2022/09/20 13:43:36;;;;;;;5.87;1.40;;;;;;;;;;5029176;28;20052;-59
2022/09/20 13:46:15;;;;;;;5.23;1.00;;;;;;;;;;5028442;28;20047;-59
2022/09/20 13:48:42;;;;;;;6.13;2.00;;;;;;;;;;5030138;28;21800;-59
2022/09/20 13:51:17;;;;;;;6.73;1.20;;;;;;;;;;5047719;28;20503;-59
2022/09/20 13:53:43;;;;;;;4.50;1.77;;;;;;;;;;5030246;28;20087;-60
2022/09/20 13:56:30;;;;;;;5.50;1.50;;;;;;;;;;5048462;28;20052;-58
2022/09/20 13:58:59;;;;;;;4.63;0.87;;;;;;;;;;5048620;28;20053;-59
2022/09/20 14:01:33;;;;;;;5.03;1.10;;;;;;;;;;5048746;28;20085;-59
2022/09/20 14:04:13;;;;;;;3.13;0.90;;;;;;;;;;5047924;28;20073;-59
2022/09/20 14:06:39;;;;;;;3.60;0.70;;;;;;;;;;5034703;28;20476;-59
2022/09/20 14:09:06;;;;;;;5.57;1.10;;;;;;;;;;5028311;28;20053;-59
2022/09/20 14:11:32;;;;;;;4.07;0.90;;;;;;;;;;5028769;28;20096;-59
2022/09/20 14:14:00;;;;;;;4.07;1.00;;;;;;;;;;5027572;28;20046;-59
2022/09/20 14:16:40;;;;;;;4.37;0.87;;;;;;;;;;5028756;28;20041;-59
2022/09/20 14:19:06;;;;;;;3.40;1.05;;;;;;;;;;5039563;28;20499;-58
2022/09/20 14:21:33;;;;;;;3.97;1.07;;;;;;;;;;5047825;28;20049;-58
2022/09/20 14:24:07;;;;;;;5.63;0.77;;;;;;;;;;5048143;28;20142;-58
2022/09/20 14:26:35;;;;;;;4.90;1.03;;;;;;;;;;5047602;28;20709;-58
2022/09/20 14:29:19;;;;;;;5.73;0.90;;;;;;;;;;5047529;28;20115;-58
2022/09/20 14:31:46;;;;;;;3.43;0.87;;;;;;;;;;5048623;28;20091;-59
2022/09/20 14:34:12;;;;;;;3.23;0.53;;;;;;;;;;5047352;28;20129;-58
2022/09/20 14:36:39;;;;;;;5.07;1.10;;;;;;;;;;5047980;28;20076;-59
2022/09/20 14:39:13;;;;;;;7.13;1.13;;;;;;;;;;5048483;28;20041;-58
2022/09/20 14:41:40;;;;;;;3.10;0.67;;;;;;;;;;5048054;28;20458;-58
2022/09/20 14:44:15;;;;;;;4.10;0.83;;;;;;;;;;5047657;28;20071;-58
2022/09/20 14:46:42;;;;;;;4.10;0.90;;;;;;;;;;5048500;28;20103;-59
2022/09/20 14:49:31;;;;;;;3.63;0.90;;;;;;;;;;5047843;28;20118;-59
2022/09/20 14:52:16;;;;;;;2.53;0.70;;;;;;;;;;5040101;28;20426;-59
2022/09/20 14:54:42;;;;;;;4.73;0.67;;;;;;;;;;5047684;28;20073;-59
2022/09/20 14:57:08;;;;;;;3.27;0.70;;;;;;;;;;5047470;28;20041;-58
2022/09/20 14:59:41;;;;;;;2.87;0.67;;;;;;;;;;5047951;28;20041;-58
2022/09/20 15:02:09;;;;;;;3.67;0.70;;;;;;;;;;5047048;28;20045;-58
2022/09/20 15:04:36;;;;;;;4.80;1.00;;;;;;;;;;5047743;28;20053;-58
2022/09/20 15:07:05;;;;;;;3.03;0.50;;;;;;;;;;5047445;28;20057;-58
2022/09/20 15:09:31;;;;;;;2.67;0.67;;;;;;;;;;5047769;28;20053;-58
2022/09/20 15:12:00;;;;;;;3.47;0.87;;;;;;;;;;5047539;28;20608;-59
2022/09/20 15:14:26;;;;;;;6.30;0.80;;;;;;;;;;5048186;28;20052;-58
2022/09/20 15:16:52;;;;;;;5.97;1.00;;;;;;;;;;5047349;28;20040;-58
2022/09/20 15:19:18;;;;;;;3.23;0.70;;;;;;;;;;5047309;28;20103;-58
2022/09/20 15:21:44;;;;;;;4.77;0.83;;;;;;;;;;5047034;28;20087;-58
2022/09/20 15:24:10;;;;;;;5.17;0.90;;;;;;;;;;5047546;28;20044;-58
2022/09/20 15:26:36;;;;;;;7.33;0.53;;;;;;;;;;5047060;28;20041;-58
2022/09/20 15:29:03;;;;;;;3.00;1.30;;;;;;;;;;5047303;28;20044;-59
2022/09/20 15:31:29;;;;;;;6.23;1.50;;;;;;;;;;5046873;28;20049;-59
2022/09/20 15:33:55;;;;;;;5.00;0.70;;;;;;;;;;5046783;28;20041;-59